Prescott, Arkansas
Current Conditions -  °F | °C
As of 6:56 AM on Thursday 27 Nov 2014 (Local Time) from KADF Reporting Station
Clear Clear  
Wind Chill: 30°   Ceiling: Unl
Heat Index: 34°   Visibility: 10mi
Dew Point: 28°   Wind: 5mph
Humidity: 79%   Direction: 280°W
Pressure: 30.5"   Gusts: NA
Location:  33.8°N, 93.38°W
Report Text: KADF 271256Z AUTO 28004KT 10SM CLR 01/M02 A3050 RMK AO2 T00111022 SLP345
Loading
Personal Weather Stations






























Interactive Weather Map New forecast layout! Learn more

10-Day Weather Forecast

Advertisements
Track Severe Weather on mobile